KTCC/TCC METAR and TAF weather

Enter ICAO airport designator
Station Type Date Time Source
KTCC METAR 2022/05/24 13:06 UTC NOAA

KTCC 241306Z AUTO 01008KT 3SM -RA BR SCT007 BKN010 OVC028 12/11 A2988 RMK AO2 P0000 T01170106


Station Type Date Time Source
KTCC Decoded METAR 2022/05/24 13:06 UTC NOAA

TUCUMCARI MUNICIPAL AIRPORT , NM, United States (KTCC) 35-11N 103-36W 1235M
May 24, 2022 - 09:06 AM EDT / 2022.05.24 1306 UTC
Wind: from the N (010 degrees) at 9 MPH (8 KT):0
Visibility: 3 mile(s):0
Sky conditions: overcast
Weather: light rain; mist
Precipitation last hour: A trace
Temperature: 53.1 F (11.7 C)
Dew Point: 51.1 F (10.6 C)
Relative Humidity: 92%
Pressure (altimeter): 29.88 in. Hg (1011 hPa)
ob: KTCC 241306Z AUTO 01008KT 3SM -RA BR SCT007 BKN010 OVC028 12/11 A2988 RMK AO2 P0000 T01170106
cycle: 13

Station Type Date Time Source
KTCC TAF 2022/05/24 12:22 UTC NOAA

TAF KTCC 241120Z 2412/2512 05015KT P6SM BKN007 BKN012
FM241500 04011KT P6SM SCT025
FM241800 02017G27KT P6SM BKN040
FM242100 35020G30KT P6SM VCTS SCT040CB BKN110
TEMPO 2421/2424 VRB25G45KT 4SM -TSRA OVC040CB
FM250000 02015G25KT P6SM FEW020 BKN040
FM250300 35008KT P6SM SCT015 BKN030

Example: see airport list